sensor_id;sensor_type;location;lat;lon;timestamp;temperature;humidity
13606;DHT22;6874;52.084;5.090;2023-05-10T00:01:04;13.90;99.90
13606;DHT22;6874;52.084;5.090;2023-05-10T00:03:29;13.90;99.90
13606;DHT22;6874;52.084;5.090;2023-05-10T00:05:55;13.90;99.90
13606;DHT22;6874;52.084;5.090;2023-05-10T00:08:20;13.90;99.90
13606;DHT22;6874;52.084;5.090;2023-05-10T00:10:46;13.80;99.90
13606;DHT22;6874;52.084;5.090;2023-05-10T00:13:11;13.80;99.90
13606;DHT22;6874;52.084;5.090;2023-05-10T00:15:37;13.80;99.90
13606;DHT22;6874;52.084;5.090;2023-05-10T00:18:03;13.80;99.90
13606;DHT22;6874;52.084;5.090;2023-05-10T00:20:28;13.80;99.90
13606;DHT22;6874;52.084;5.090;2023-05-10T00:22:54;13.80;99.90
13606;DHT22;6874;52.084;5.090;2023-05-10T00:25:19;13.80;99.90
13606;DHT22;6874;52.084;5.090;2023-05-10T00:27:47;13.80;99.90
13606;DHT22;6874;52.084;5.090;2023-05-10T00:30:12;13.70;99.90
13606;DHT22;6874;52.084;5.090;2023-05-10T00:32:38;13.70;99.90
13606;DHT22;6874;52.084;5.090;2023-05-10T00:35:04;13.70;99.90
13606;DHT22;6874;52.084;5.090;2023-05-10T00:37:30;13.70;99.90
13606;DHT22;6874;52.084;5.090;2023-05-10T00:39:55;13.70;99.90
13606;DHT22;6874;52.084;5.090;2023-05-10T00:42:21;13.60;99.90
13606;DHT22;6874;52.084;5.090;2023-05-10T00:44:47;13.70;99.90
13606;DHT22;6874;52.084;5.090;2023-05-10T00:47:13;13.70;99.90
13606;DHT22;6874;52.084;5.090;2023-05-10T00:49:38;13.60;99.90
13606;DHT22;6874;52.084;5.090;2023-05-10T00:52:04;13.60;99.90
13606;DHT22;6874;52.084;5.090;2023-05-10T00:54:30;13.60;99.90
13606;DHT22;6874;52.084;5.090;2023-05-10T00:56:56;13.60;99.90
13606;DHT22;6874;52.084;5.090;2023-05-10T00:59:22;13.60;99.90
13606;DHT22;6874;52.084;5.090;2023-05-10T01:01:48;13.60;99.90
13606;DHT22;6874;52.084;5.090;2023-05-10T01:04:14;13.60;99.90
13606;DHT22;6874;52.084;5.090;2023-05-10T01:06:43;13.60;99.90
13606;DHT22;6874;52.084;5.090;2023-05-10T01:09:09;13.60;99.90
13606;DHT22;6874;52.084;5.090;2023-05-10T01:11:36;13.60;99.90
13606;DHT22;6874;52.084;5.090;2023-05-10T01:14:02;13.60;99.90
13606;DHT22;6874;52.084;5.090;2023-05-10T01:16:36;13.60;99.90
13606;DHT22;6874;52.084;5.090;2023-05-10T01:19:12;13.60;99.90
13606;DHT22;6874;52.084;5.090;2023-05-10T01:30:20;13.60;99.90
13606;DHT22;6874;52.084;5.090;2023-05-10T01:33:08;13.60;99.90
13606;DHT22;6874;52.084;5.090;2023-05-10T01:35:55;13.50;99.90
13606;DHT22;6874;52.084;5.090;2023-05-10T01:38:46;13.50;99.90
13606;DHT22;6874;52.084;5.090;2023-05-10T01:41:36;13.50;99.90
13606;DHT22;6874;52.084;5.090;2023-05-10T01:46:38;13.50;99.90
13606;DHT22;6874;52.084;5.090;2023-05-10T01:49:17;13.50;99.90
13606;DHT22;6874;52.084;5.090;2023-05-10T01:51:50;13.50;99.90
13606;DHT22;6874;52.084;5.090;2023-05-10T01:54:19;13.50;99.90
13606;DHT22;6874;52.084;5.090;2023-05-10T01:56:48;13.50;99.90
13606;DHT22;6874;52.084;5.090;2023-05-10T01:59:18;13.50;99.90
13606;DHT22;6874;52.084;5.090;2023-05-10T02:01:46;13.50;99.90
13606;DHT22;6874;52.084;5.090;2023-05-10T02:04:15;13.50;99.90
13606;DHT22;6874;52.084;5.090;2023-05-10T02:06:42;13.50;99.90
13606;DHT22;6874;52.084;5.090;2023-05-10T02:09:10;13.50;99.90
13606;DHT22;6874;52.084;5.090;2023-05-10T02:11:38;13.40;99.90
13606;DHT22;6874;52.084;5.090;2023-05-10T02:14:06;13.40;99.90
13606;DHT22;6874;52.084;5.090;2023-05-10T02:16:35;13.50;99.90
13606;DHT22;6874;52.084;5.090;2023-05-10T02:19:02;13.40;99.90
13606;DHT22;6874;52.084;5.090;2023-05-10T02:21:28;13.40;99.90
13606;DHT22;6874;52.084;5.090;2023-05-10T02:23:57;13.40;99.90
13606;DHT22;6874;52.084;5.090;2023-05-10T02:26:24;13.40;99.90
13606;DHT22;6874;52.084;5.090;2023-05-10T02:28:51;13.40;99.90
13606;DHT22;6874;52.084;5.090;2023-05-10T02:31:17;13.40;99.90
13606;DHT22;6874;52.084;5.090;2023-05-10T02:33:44;13.40;99.90
13606;DHT22;6874;52.084;5.090;2023-05-10T02:36:11;13.40;99.90
13606;DHT22;6874;52.084;5.090;2023-05-10T02:38:37;13.40;99.90
13606;DHT22;6874;52.084;5.090;2023-05-10T02:41:05;13.40;99.90
13606;DHT22;6874;52.084;5.090;2023-05-10T02:43:32;13.40;99.90
13606;DHT22;6874;52.084;5.090;2023-05-10T02:45:58;13.40;99.90
13606;DHT22;6874;52.084;5.090;2023-05-10T02:48:24;13.40;99.90
13606;DHT22;6874;52.084;5.090;2023-05-10T02:50:51;13.40;99.90
13606;DHT22;6874;52.084;5.090;2023-05-10T02:53:22;13.40;99.90
13606;DHT22;6874;52.084;5.090;2023-05-10T02:55:50;13.40;99.90
13606;DHT22;6874;52.084;5.090;2023-05-10T02:58:16;13.40;99.90
13606;DHT22;6874;52.084;5.090;2023-05-10T03:00:44;13.40;99.90
13606;DHT22;6874;52.084;5.090;2023-05-10T03:03:10;13.50;99.90
13606;DHT22;6874;52.084;5.090;2023-05-10T03:05:36;13.40;99.90
13606;DHT22;6874;52.084;5.090;2023-05-10T03:08:01;13.40;99.90
13606;DHT22;6874;52.084;5.090;2023-05-10T03:10:30;13.40;99.90
13606;DHT22;6874;52.084;5.090;2023-05-10T03:13:13;13.30;99.90
13606;DHT22;6874;52.084;5.090;2023-05-10T03:15:59;13.40;99.90
13606;DHT22;6874;52.084;5.090;2023-05-10T03:18:37;13.30;99.90
13606;DHT22;6874;52.084;5.090;2023-05-10T03:21:04;13.30;99.90
13606;DHT22;6874;52.084;5.090;2023-05-10T03:23:48;13.30;99.90
13606;DHT22;6874;52.084;5.090;2023-05-10T03:26:23;13.30;99.90
13606;DHT22;6874;52.084;5.090;2023-05-10T03:28:52;13.30;99.90
13606;DHT22;6874;52.084;5.090;2023-05-10T03:31:18;13.40;99.90
13606;DHT22;6874;52.084;5.090;2023-05-10T03:33:48;13.30;99.90
13606;DHT22;6874;52.084;5.090;2023-05-10T03:36:14;13.30;99.90
13606;DHT22;6874;52.084;5.090;2023-05-10T03:38:39;13.30;99.90
13606;DHT22;6874;52.084;5.090;2023-05-10T03:41:05;13.30;99.90
13606;DHT22;6874;52.084;5.090;2023-05-10T03:43:30;13.30;99.90
13606;DHT22;6874;52.084;5.090;2023-05-10T03:45:56;13.30;99.90
13606;DHT22;6874;52.084;5.090;2023-05-10T03:48:21;13.30;99.90
13606;DHT22;6874;52.084;5.090;2023-05-10T03:50:47;13.30;99.90
13606;DHT22;6874;52.084;5.090;2023-05-10T03:53:14;13.30;99.90
13606;DHT22;6874;52.084;5.090;2023-05-10T03:55:40;13.30;99.90
13606;DHT22;6874;52.084;5.090;2023-05-10T03:58:06;13.30;99.90
13606;DHT22;6874;52.084;5.090;2023-05-10T04:00:32;13.30;99.90
13606;DHT22;6874;52.084;5.090;2023-05-10T04:02:58;13.30;99.90
13606;DHT22;6874;52.084;5.090;2023-05-10T04:05:24;13.30;99.90
13606;DHT22;6874;52.084;5.090;2023-05-10T04:07:49;13.30;99.90
13606;DHT22;6874;52.084;5.090;2023-05-10T04:10:16;13.30;99.90
13606;DHT22;6874;52.084;5.090;2023-05-10T04:12:42;13.30;99.90
13606;DHT22;6874;52.084;5.090;2023-05-10T04:15:08;13.30;99.90
13606;DHT22;6874;52.084;5.090;2023-05-10T04:17:34;13.30;99.90
13606;DHT22;6874;52.084;5.090;2023-05-10T04:19:59;13.30;99.90
13606;DHT22;6874;52.084;5.090;2023-05-10T04:22:25;13.30;99.90
13606;DHT22;6874;52.084;5.090;2023-05-10T04:24:50;13.30;99.90
13606;DHT22;6874;52.084;5.090;2023-05-10T04:27:16;13.30;99.90
13606;DHT22;6874;52.084;5.090;2023-05-10T04:29:41;13.30;99.90
13606;DHT22;6874;52.084;5.090;2023-05-10T04:32:07;13.30;99.90
13606;DHT22;6874;52.084;5.090;2023-05-10T04:34:33;13.30;99.90
13606;DHT22;6874;52.084;5.090;2023-05-10T04:36:59;13.30;99.90
13606;DHT22;6874;52.084;5.090;2023-05-10T04:39:25;13.30;99.90
13606;DHT22;6874;52.084;5.090;2023-05-10T04:41:50;13.30;99.90
13606;DHT22;6874;52.084;5.090;2023-05-10T04:44:16;13.30;99.90
13606;DHT22;6874;52.084;5.090;2023-05-10T04:46:41;13.30;99.90
13606;DHT22;6874;52.084;5.090;2023-05-10T04:49:07;13.30;99.90
13606;DHT22;6874;52.084;5.090;2023-05-10T04:51:32;13.30;99.90
13606;DHT22;6874;52.084;5.090;2023-05-10T04:53:58;13.30;99.90
13606;DHT22;6874;52.084;5.090;2023-05-10T04:56:24;13.30;99.90
13606;DHT22;6874;52.084;5.090;2023-05-10T04:58:49;13.30;99.90
13606;DHT22;6874;52.084;5.090;2023-05-10T05:01:15;13.30;99.90
13606;DHT22;6874;52.084;5.090;2023-05-10T05:03:40;13.30;99.90
13606;DHT22;6874;52.084;5.090;2023-05-10T05:06:06;13.30;99.90
13606;DHT22;6874;52.084;5.090;2023-05-10T05:08:31;13.30;99.90
13606;DHT22;6874;52.084;5.090;2023-05-10T05:10:57;13.30;99.90
13606;DHT22;6874;52.084;5.090;2023-05-10T05:13:23;13.30;99.90
13606;DHT22;6874;52.084;5.090;2023-05-10T05:15:48;13.30;99.90
13606;DHT22;6874;52.084;5.090;2023-05-10T05:18:14;13.30;99.90
13606;DHT22;6874;52.084;5.090;2023-05-10T05:20:40;13.30;99.90
13606;DHT22;6874;52.084;5.090;2023-05-10T05:23:05;13.30;99.90
13606;DHT22;6874;52.084;5.090;2023-05-10T05:25:31;13.30;99.90
13606;DHT22;6874;52.084;5.090;2023-05-10T05:27:57;13.30;99.90
13606;DHT22;6874;52.084;5.090;2023-05-10T05:30:22;13.30;99.90
13606;DHT22;6874;52.084;5.090;2023-05-10T05:32:48;13.30;99.90
13606;DHT22;6874;52.084;5.090;2023-05-10T05:35:13;13.30;99.90
13606;DHT22;6874;52.084;5.090;2023-05-10T05:37:39;13.30;99.90
13606;DHT22;6874;52.084;5.090;2023-05-10T05:40:05;13.30;99.90
13606;DHT22;6874;52.084;5.090;2023-05-10T05:42:31;13.30;99.90
13606;DHT22;6874;52.084;5.090;2023-05-10T05:44:57;13.20;99.90
13606;DHT22;6874;52.084;5.090;2023-05-10T05:47:23;13.30;99.90
13606;DHT22;6874;52.084;5.090;2023-05-10T05:49:48;13.30;99.90
13606;DHT22;6874;52.084;5.090;2023-05-10T05:52:14;13.30;99.90
13606;DHT22;6874;52.084;5.090;2023-05-10T05:54:39;13.30;99.90
13606;DHT22;6874;52.084;5.090;2023-05-10T05:57:05;13.30;99.90
13606;DHT22;6874;52.084;5.090;2023-05-10T05:59:31;13.20;99.90
13606;DHT22;6874;52.084;5.090;2023-05-10T06:01:56;13.30;99.90
13606;DHT22;6874;52.084;5.090;2023-05-10T06:04:22;13.30;99.90
13606;DHT22;6874;52.084;5.090;2023-05-10T06:06:47;13.20;99.90
13606;DHT22;6874;52.084;5.090;2023-05-10T06:09:13;13.30;99.90
13606;DHT22;6874;52.084;5.090;2023-05-10T06:11:38;13.30;99.90
13606;DHT22;6874;52.084;5.090;2023-05-10T06:14:04;13.30;99.90
13606;DHT22;6874;52.084;5.090;2023-05-10T06:16:33;13.30;99.90
13606;DHT22;6874;52.084;5.090;2023-05-10T06:18:59;13.30;99.90
13606;DHT22;6874;52.084;5.090;2023-05-10T06:21:25;13.30;99.90
13606;DHT22;6874;52.084;5.090;2023-05-10T06:23:50;13.30;99.90
13606;DHT22;6874;52.084;5.090;2023-05-10T06:26:16;13.30;99.90
13606;DHT22;6874;52.084;5.090;2023-05-10T06:28:42;13.30;99.90
13606;DHT22;6874;52.084;5.090;2023-05-10T06:31:07;13.30;99.90
13606;DHT22;6874;52.084;5.090;2023-05-10T06:33:33;13.30;99.90
13606;DHT22;6874;52.084;5.090;2023-05-10T06:35:59;13.30;99.90
13606;DHT22;6874;52.084;5.090;2023-05-10T06:38:24;13.30;99.90
13606;DHT22;6874;52.084;5.090;2023-05-10T06:40:50;13.30;99.90
13606;DHT22;6874;52.084;5.090;2023-05-10T06:43:16;13.30;99.90
13606;DHT22;6874;52.084;5.090;2023-05-10T06:45:42;13.30;99.90
13606;DHT22;6874;52.084;5.090;2023-05-10T06:48:07;13.40;99.90
13606;DHT22;6874;52.084;5.090;2023-05-10T06:50:33;13.50;99.90
13606;DHT22;6874;52.084;5.090;2023-05-10T06:52:59;13.40;99.90
13606;DHT22;6874;52.084;5.090;2023-05-10T06:55:25;13.50;99.90
13606;DHT22;6874;52.084;5.090;2023-05-10T06:57:51;13.40;99.90
13606;DHT22;6874;52.084;5.090;2023-05-10T07:00:18;13.40;99.90
13606;DHT22;6874;52.084;5.090;2023-05-10T07:02:43;13.50;99.90
13606;DHT22;6874;52.084;5.090;2023-05-10T07:05:09;13.60;99.90
13606;DHT22;6874;52.084;5.090;2023-05-10T07:07:35;13.60;99.90
13606;DHT22;6874;52.084;5.090;2023-05-10T07:10:01;13.60;99.90
13606;DHT22;6874;52.084;5.090;2023-05-10T07:12:27;13.60;99.90
13606;DHT22;6874;52.084;5.090;2023-05-10T07:14:52;13.70;99.90
13606;DHT22;6874;52.084;5.090;2023-05-10T07:17:18;13.70;99.90
13606;DHT22;6874;52.084;5.090;2023-05-10T07:19:44;13.70;99.90
13606;DHT22;6874;52.084;5.090;2023-05-10T07:22:09;13.70;99.90
13606;DHT22;6874;52.084;5.090;2023-05-10T07:24:35;13.70;99.90
13606;DHT22;6874;52.084;5.090;2023-05-10T07:27:01;13.70;99.90
13606;DHT22;6874;52.084;5.090;2023-05-10T07:29:26;13.70;99.90
13606;DHT22;6874;52.084;5.090;2023-05-10T07:31:52;13.70;99.90
13606;DHT22;6874;52.084;5.090;2023-05-10T07:34:18;13.80;99.90
13606;DHT22;6874;52.084;5.090;2023-05-10T07:36:43;13.80;99.90
13606;DHT22;6874;52.084;5.090;2023-05-10T07:39:09;13.80;99.90
13606;DHT22;6874;52.084;5.090;2023-05-10T07:41:34;13.80;99.90
13606;DHT22;6874;52.084;5.090;2023-05-10T07:44:00;13.80;99.90
13606;DHT22;6874;52.084;5.090;2023-05-10T07:46:26;13.80;99.90
13606;DHT22;6874;52.084;5.090;2023-05-10T07:48:51;13.80;99.90
13606;DHT22;6874;52.084;5.090;2023-05-10T07:51:17;13.80;99.90
13606;DHT22;6874;52.084;5.090;2023-05-10T07:53:42;13.90;99.90
13606;DHT22;6874;52.084;5.090;2023-05-10T07:56:28;13.90;99.90
13606;DHT22;6874;52.084;5.090;2023-05-10T07:59:01;13.90;99.90
13606;DHT22;6874;52.084;5.090;2023-05-10T08:01:31;13.90;99.90
13606;DHT22;6874;52.084;5.090;2023-05-10T08:03:57;13.90;99.90
13606;DHT22;6874;52.084;5.090;2023-05-10T08:06:23;13.90;99.90
13606;DHT22;6874;52.084;5.090;2023-05-10T08:08:49;13.90;99.90
13606;DHT22;6874;52.084;5.090;2023-05-10T08:11:17;14.00;99.90
13606;DHT22;6874;52.084;5.090;2023-05-10T08:13:43;14.00;99.90
13606;DHT22;6874;52.084;5.090;2023-05-10T08:16:09;14.00;99.90
13606;DHT22;6874;52.084;5.090;2023-05-10T08:18:35;14.00;99.90
13606;DHT22;6874;52.084;5.090;2023-05-10T08:21:00;14.00;99.90
13606;DHT22;6874;52.084;5.090;2023-05-10T08:23:26;14.00;99.90
13606;DHT22;6874;52.084;5.090;2023-05-10T08:25:51;14.00;99.90
13606;DHT22;6874;52.084;5.090;2023-05-10T08:28:17;14.00;99.90
13606;DHT22;6874;52.084;5.090;2023-05-10T08:30:42;14.10;99.90
13606;DHT22;6874;52.084;5.090;2023-05-10T08:33:08;14.10;99.90
13606;DHT22;6874;52.084;5.090;2023-05-10T08:35:33;14.10;99.90
13606;DHT22;6874;52.084;5.090;2023-05-10T08:38:00;14.10;99.90
13606;DHT22;6874;52.084;5.090;2023-05-10T08:40:26;14.10;99.90
13606;DHT22;6874;52.084;5.090;2023-05-10T08:43:01;14.10;99.90
13606;DHT22;6874;52.084;5.090;2023-05-10T08:45:32;14.10;99.90
13606;DHT22;6874;52.084;5.090;2023-05-10T08:48:01;14.20;99.90
13606;DHT22;6874;52.084;5.090;2023-05-10T08:50:27;14.20;99.90
13606;DHT22;6874;52.084;5.090;2023-05-10T08:52:55;14.20;99.90
13606;DHT22;6874;52.084;5.090;2023-05-10T08:55:23;14.20;99.90
13606;DHT22;6874;52.084;5.090;2023-05-10T08:57:49;14.20;99.90
13606;DHT22;6874;52.084;5.090;2023-05-10T09:00:16;14.20;99.90
13606;DHT22;6874;52.084;5.090;2023-05-10T09:02:43;14.30;99.90
13606;DHT22;6874;52.084;5.090;2023-05-10T09:05:09;14.30;99.90
13606;DHT22;6874;52.084;5.090;2023-05-10T09:07:35;14.30;99.90
13606;DHT22;6874;52.084;5.090;2023-05-10T09:10:02;14.30;99.90
13606;DHT22;6874;52.084;5.090;2023-05-10T09:12:28;14.30;99.90
13606;DHT22;6874;52.084;5.090;2023-05-10T09:14:54;14.40;99.90
13606;DHT22;6874;52.084;5.090;2023-05-10T09:17:22;14.40;99.90
13606;DHT22;6874;52.084;5.090;2023-05-10T09:19:48;14.40;99.90
13606;DHT22;6874;52.084;5.090;2023-05-10T09:22:14;14.50;99.90
13606;DHT22;6874;52.084;5.090;2023-05-10T09:24:39;14.50;99.90
13606;DHT22;6874;52.084;5.090;2023-05-10T09:27:10;14.60;99.90
13606;DHT22;6874;52.084;5.090;2023-05-10T09:29:43;14.60;99.90
13606;DHT22;6874;52.084;5.090;2023-05-10T09:32:08;14.60;99.90
13606;DHT22;6874;52.084;5.090;2023-05-10T09:34:34;14.70;99.90
13606;DHT22;6874;52.084;5.090;2023-05-10T09:37:05;14.70;99.90
13606;DHT22;6874;52.084;5.090;2023-05-10T09:39:36;14.70;99.90
13606;DHT22;6874;52.084;5.090;2023-05-10T09:42:04;14.70;99.90
13606;DHT22;6874;52.084;5.090;2023-05-10T09:44:31;14.70;99.90
13606;DHT22;6874;52.084;5.090;2023-05-10T09:46:58;14.80;99.90
13606;DHT22;6874;52.084;5.090;2023-05-10T09:49:24;14.80;99.90
13606;DHT22;6874;52.084;5.090;2023-05-10T09:52:06;14.80;99.90
13606;DHT22;6874;52.084;5.090;2023-05-10T09:54:33;14.80;99.90
13606;DHT22;6874;52.084;5.090;2023-05-10T09:56:59;14.80;99.90
13606;DHT22;6874;52.084;5.090;2023-05-10T09:59:26;14.80;99.90
13606;DHT22;6874;52.084;5.090;2023-05-10T10:01:53;14.80;99.90
13606;DHT22;6874;52.084;5.090;2023-05-10T10:04:21;14.90;99.90
13606;DHT22;6874;52.084;5.090;2023-05-10T10:06:46;14.90;99.90
13606;DHT22;6874;52.084;5.090;2023-05-10T10:09:23;14.90;99.90
13606;DHT22;6874;52.084;5.090;2023-05-10T10:11:49;14.90;99.90
13606;DHT22;6874;52.084;5.090;2023-05-10T10:14:17;14.90;99.90
13606;DHT22;6874;52.084;5.090;2023-05-10T10:16:43;14.90;99.90
13606;DHT22;6874;52.084;5.090;2023-05-10T10:19:09;15.00;99.90
13606;DHT22;6874;52.084;5.090;2023-05-10T10:21:35;14.90;99.90
13606;DHT22;6874;52.084;5.090;2023-05-10T10:24:01;14.90;99.90
13606;DHT22;6874;52.084;5.090;2023-05-10T10:26:26;15.00;99.90
13606;DHT22;6874;52.084;5.090;2023-05-10T10:29:16;15.00;99.90
13606;DHT22;6874;52.084;5.090;2023-05-10T10:32:02;15.00;99.90
13606;DHT22;6874;52.084;5.090;2023-05-10T10:34:31;15.00;99.90
13606;DHT22;6874;52.084;5.090;2023-05-10T10:36:58;15.00;99.90
13606;DHT22;6874;52.084;5.090;2023-05-10T10:39:28;15.10;99.90
13606;DHT22;6874;52.084;5.090;2023-05-10T10:41:55;15.10;99.90
13606;DHT22;6874;52.084;5.090;2023-05-10T10:52:20;15.30;99.90
13606;DHT22;6874;52.084;5.090;2023-05-10T10:55:06;15.40;99.90
13606;DHT22;6874;52.084;5.090;2023-05-10T10:57:42;15.50;99.90
13606;DHT22;6874;52.084;5.090;2023-05-10T11:00:21;15.50;99.90
13606;DHT22;6874;52.084;5.090;2023-05-10T11:07:57;15.70;99.90
13606;DHT22;6874;52.084;5.090;2023-05-10T11:10:24;15.80;99.90
13606;DHT22;6874;52.084;5.090;2023-05-10T11:12:58;15.90;99.90
13606;DHT22;6874;52.084;5.090;2023-05-10T11:15:38;15.80;99.90
13606;DHT22;6874;52.084;5.090;2023-05-10T11:20:51;15.90;99.90
13606;DHT22;6874;52.084;5.090;2023-05-10T11:23:17;15.90;99.90
13606;DHT22;6874;52.084;5.090;2023-05-10T11:25:44;15.80;99.90
13606;DHT22;6874;52.084;5.090;2023-05-10T11:28:10;15.90;99.90
13606;DHT22;6874;52.084;5.090;2023-05-10T11:30:39;15.90;99.90
13606;DHT22;6874;52.084;5.090;2023-05-10T11:33:06;15.90;99.90
13606;DHT22;6874;52.084;5.090;2023-05-10T11:35:37;15.90;99.90
13606;DHT22;6874;52.084;5.090;2023-05-10T11:38:08;16.00;99.90
13606;DHT22;6874;52.084;5.090;2023-05-10T11:40:35;16.00;99.90
13606;DHT22;6874;52.084;5.090;2023-05-10T11:43:02;16.00;99.90
13606;DHT22;6874;52.084;5.090;2023-05-10T11:45:28;16.00;99.90
13606;DHT22;6874;52.084;5.090;2023-05-10T11:47:55;16.00;99.90
13606;DHT22;6874;52.084;5.090;2023-05-10T11:50:21;16.00;99.90
13606;DHT22;6874;52.084;5.090;2023-05-10T11:52:51;16.10;99.90
13606;DHT22;6874;52.084;5.090;2023-05-10T11:55:17;16.10;99.90
13606;DHT22;6874;52.084;5.090;2023-05-10T11:57:42;16.10;99.90
13606;DHT22;6874;52.084;5.090;2023-05-10T12:00:11;16.10;99.90
13606;DHT22;6874;52.084;5.090;2023-05-10T12:02:37;16.10;99.90
13606;DHT22;6874;52.084;5.090;2023-05-10T12:05:04;16.10;99.90
13606;DHT22;6874;52.084;5.090;2023-05-10T12:07:30;16.10;99.90
13606;DHT22;6874;52.084;5.090;2023-05-10T12:12:41;16.20;99.90
13606;DHT22;6874;52.084;5.090;2023-05-10T12:15:21;16.20;99.90
13606;DHT22;6874;52.084;5.090;2023-05-10T12:17:47;16.20;99.90
13606;DHT22;6874;52.084;5.090;2023-05-10T12:20:23;16.20;99.90
13606;DHT22;6874;52.084;5.090;2023-05-10T12:22:57;16.20;99.90
13606;DHT22;6874;52.084;5.090;2023-05-10T12:25:24;16.10;99.90
13606;DHT22;6874;52.084;5.090;2023-05-10T12:27:56;16.10;99.90
13606;DHT22;6874;52.084;5.090;2023-05-10T12:30:23;16.10;99.90
13606;DHT22;6874;52.084;5.090;2023-05-10T12:32:49;16.10;99.90
13606;DHT22;6874;52.084;5.090;2023-05-10T12:35:15;16.00;99.90
13606;DHT22;6874;52.084;5.090;2023-05-10T12:37:44;16.00;99.90
13606;DHT22;6874;52.084;5.090;2023-05-10T12:40:11;15.90;99.90
13606;DHT22;6874;52.084;5.090;2023-05-10T12:42:37;15.80;99.90
13606;DHT22;6874;52.084;5.090;2023-05-10T12:45:04;15.80;99.90
13606;DHT22;6874;52.084;5.090;2023-05-10T12:47:34;15.70;99.90
13606;DHT22;6874;52.084;5.090;2023-05-10T12:50:00;15.70;99.90
13606;DHT22;6874;52.084;5.090;2023-05-10T12:52:27;15.60;99.90
13606;DHT22;6874;52.084;5.090;2023-05-10T12:54:53;15.60;99.90
13606;DHT22;6874;52.084;5.090;2023-05-10T12:57:19;15.50;99.90
13606;DHT22;6874;52.084;5.090;2023-05-10T12:59:45;15.60;99.90
13606;DHT22;6874;52.084;5.090;2023-05-10T13:02:11;15.50;99.90
13606;DHT22;6874;52.084;5.090;2023-05-10T13:04:36;15.50;99.90
13606;DHT22;6874;52.084;5.090;2023-05-10T13:07:06;15.50;99.90
13606;DHT22;6874;52.084;5.090;2023-05-10T13:09:32;15.50;99.90
13606;DHT22;6874;52.084;5.090;2023-05-10T13:11:57;15.40;99.90
13606;DHT22;6874;52.084;5.090;2023-05-10T13:14:25;15.50;99.90
13606;DHT22;6874;52.084;5.090;2023-05-10T13:16:50;15.40;99.90
13606;DHT22;6874;52.084;5.090;2023-05-10T13:19:16;15.40;99.90
13606;DHT22;6874;52.084;5.090;2023-05-10T13:21:42;15.40;99.90
13606;DHT22;6874;52.084;5.090;2023-05-10T13:24:10;15.40;99.90
13606;DHT22;6874;52.084;5.090;2023-05-10T13:26:36;15.40;99.90
13606;DHT22;6874;52.084;5.090;2023-05-10T13:29:02;15.40;99.90
13606;DHT22;6874;52.084;5.090;2023-05-10T13:31:28;15.40;99.90
13606;DHT22;6874;52.084;5.090;2023-05-10T13:33:53;15.40;99.90
13606;DHT22;6874;52.084;5.090;2023-05-10T13:36:19;15.40;99.90
13606;DHT22;6874;52.084;5.090;2023-05-10T13:38:45;15.40;99.90
13606;DHT22;6874;52.084;5.090;2023-05-10T13:41:10;15.30;99.90
13606;DHT22;6874;52.084;5.090;2023-05-10T13:43:36;15.30;99.90
13606;DHT22;6874;52.084;5.090;2023-05-10T13:46:02;15.30;99.90
13606;DHT22;6874;52.084;5.090;2023-05-10T13:48:28;15.30;99.90
13606;DHT22;6874;52.084;5.090;2023-05-10T13:50:53;15.30;99.90
13606;DHT22;6874;52.084;5.090;2023-05-10T13:53:19;15.30;99.90
13606;DHT22;6874;52.084;5.090;2023-05-10T13:55:45;15.30;99.90
13606;DHT22;6874;52.084;5.090;2023-05-10T13:58:10;15.30;99.90
13606;DHT22;6874;52.084;5.090;2023-05-10T14:00:36;15.30;99.90
13606;DHT22;6874;52.084;5.090;2023-05-10T14:03:01;15.30;99.90
13606;DHT22;6874;52.084;5.090;2023-05-10T14:05:27;15.30;99.90
13606;DHT22;6874;52.084;5.090;2023-05-10T14:07:53;15.30;99.90
13606;DHT22;6874;52.084;5.090;2023-05-10T14:10:19;15.30;99.90
13606;DHT22;6874;52.084;5.090;2023-05-10T14:12:44;15.30;99.90
13606;DHT22;6874;52.084;5.090;2023-05-10T14:15:10;15.30;99.90
13606;DHT22;6874;52.084;5.090;2023-05-10T14:17:36;15.30;99.90
13606;DHT22;6874;52.084;5.090;2023-05-10T14:20:02;15.30;99.90
13606;DHT22;6874;52.084;5.090;2023-05-10T14:22:29;15.30;99.90
13606;DHT22;6874;52.084;5.090;2023-05-10T14:24:54;15.30;99.90
13606;DHT22;6874;52.084;5.090;2023-05-10T14:27:20;15.30;99.90
13606;DHT22;6874;52.084;5.090;2023-05-10T14:29:47;15.30;99.90
13606;DHT22;6874;52.084;5.090;2023-05-10T14:32:12;15.30;99.90
13606;DHT22;6874;52.084;5.090;2023-05-10T14:34:38;15.30;99.90
13606;DHT22;6874;52.084;5.090;2023-05-10T14:37:04;15.30;99.90
13606;DHT22;6874;52.084;5.090;2023-05-10T14:39:30;15.30;99.90
13606;DHT22;6874;52.084;5.090;2023-05-10T14:41:55;15.30;99.90
13606;DHT22;6874;52.084;5.090;2023-05-10T14:44:21;15.30;99.90
13606;DHT22;6874;52.084;5.090;2023-05-10T14:46:47;15.30;99.90
13606;DHT22;6874;52.084;5.090;2023-05-10T14:49:13;15.30;99.90
13606;DHT22;6874;52.084;5.090;2023-05-10T14:51:39;15.30;99.90
13606;DHT22;6874;52.084;5.090;2023-05-10T14:54:04;15.30;99.90
13606;DHT22;6874;52.084;5.090;2023-05-10T14:56:30;15.30;99.90
13606;DHT22;6874;52.084;5.090;2023-05-10T14:58:56;15.20;99.90
13606;DHT22;6874;52.084;5.090;2023-05-10T15:01:22;15.30;99.90
13606;DHT22;6874;52.084;5.090;2023-05-10T15:03:47;15.30;99.90
13606;DHT22;6874;52.084;5.090;2023-05-10T15:06:14;15.30;99.90
13606;DHT22;6874;52.084;5.090;2023-05-10T15:08:41;15.30;99.90
13606;DHT22;6874;52.084;5.090;2023-05-10T15:11:07;15.30;99.90
13606;DHT22;6874;52.084;5.090;2023-05-10T15:13:32;15.30;99.90
13606;DHT22;6874;52.084;5.090;2023-05-10T15:15:59;15.30;99.90
13606;DHT22;6874;52.084;5.090;2023-05-10T15:18:24;15.20;99.90
13606;DHT22;6874;52.084;5.090;2023-05-10T15:20:50;15.20;99.90
13606;DHT22;6874;52.084;5.090;2023-05-10T15:23:15;15.30;99.90
13606;DHT22;6874;52.084;5.090;2023-05-10T15:25:41;15.30;99.90
13606;DHT22;6874;52.084;5.090;2023-05-10T15:28:06;15.30;99.90
13606;DHT22;6874;52.084;5.090;2023-05-10T15:30:32;15.30;99.90
13606;DHT22;6874;52.084;5.090;2023-05-10T15:32:57;15.30;99.90
13606;DHT22;6874;52.084;5.090;2023-05-10T15:35:23;15.30;99.90
13606;DHT22;6874;52.084;5.090;2023-05-10T15:37:49;15.30;99.90
13606;DHT22;6874;52.084;5.090;2023-05-10T15:40:15;15.30;99.90
13606;DHT22;6874;52.084;5.090;2023-05-10T15:42:40;15.30;99.90
13606;DHT22;6874;52.084;5.090;2023-05-10T15:45:06;15.30;99.90
13606;DHT22;6874;52.084;5.090;2023-05-10T15:47:32;15.30;99.90
13606;DHT22;6874;52.084;5.090;2023-05-10T15:49:58;15.30;99.90
13606;DHT22;6874;52.084;5.090;2023-05-10T15:52:24;15.30;99.90
13606;DHT22;6874;52.084;5.090;2023-05-10T15:54:50;15.40;99.90
13606;DHT22;6874;52.084;5.090;2023-05-10T15:57:16;15.40;99.90
13606;DHT22;6874;52.084;5.090;2023-05-10T15:59:41;15.40;99.90
13606;DHT22;6874;52.084;5.090;2023-05-10T16:02:08;15.40;99.90
13606;DHT22;6874;52.084;5.090;2023-05-10T16:04:35;15.40;99.90
13606;DHT22;6874;52.084;5.090;2023-05-10T16:07:01;15.40;99.90
13606;DHT22;6874;52.084;5.090;2023-05-10T16:09:27;15.40;99.90
13606;DHT22;6874;52.084;5.090;2023-05-10T16:11:52;15.40;99.90
13606;DHT22;6874;52.084;5.090;2023-05-10T16:14:18;15.40;99.90